createdAt,value
2022-07-28T00:01:20.230Z,1.70
2022-07-28T00:03:48.763Z,2.05
2022-07-28T00:06:15.767Z,1.52
2022-07-28T00:08:49.631Z,1.50
2022-07-28T00:11:16.938Z,1.50
2022-07-28T00:13:43.886Z,1.90
2022-07-28T00:16:10.878Z,1.33
2022-07-28T00:18:37.915Z,1.52
2022-07-28T00:21:04.869Z,1.63
2022-07-28T00:23:32.542Z,1.38
2022-07-28T00:26:05.530Z,1.38
2022-07-28T00:28:32.493Z,1.45
2022-07-28T00:31:05.057Z,1.20
2022-07-28T00:33:40.137Z,1.50
2022-07-28T00:36:11.677Z,1.58
2022-07-28T00:38:41.083Z,1.77
2022-07-28T00:41:11.052Z,1.73
2022-07-28T00:43:38.527Z,1.63
2022-07-28T00:46:05.591Z,2.10
2022-07-28T00:48:40.709Z,2.17
2022-07-28T00:51:09.458Z,2.10
2022-07-28T00:53:40.111Z,1.60
2022-07-28T00:56:07.497Z,2.22
2022-07-28T00:58:44.740Z,1.80
2022-07-28T01:01:19.881Z,2.10
2022-07-28T01:03:53.376Z,1.42
2022-07-28T01:06:32.572Z,1.55
2022-07-28T01:09:08.443Z,1.50
2022-07-28T01:11:58.030Z,1.85
2022-07-28T01:14:31.688Z,1.50
2022-07-28T01:17:18.141Z,1.80
2022-07-28T01:19:58.396Z,1.67
2022-07-28T01:22:29.705Z,1.60
2022-07-28T01:25:03.261Z,2.15
2022-07-28T01:27:37.788Z,1.40
2022-07-28T01:30:27.770Z,1.75
2022-07-28T01:32:59.525Z,1.60
2022-07-28T01:35:35.673Z,1.70
2022-07-28T01:38:11.461Z,2.00
2022-07-28T01:40:40.890Z,1.60
2022-07-28T01:43:18.120Z,1.67
2022-07-28T01:45:45.309Z,1.43
2022-07-28T01:48:17.844Z,1.60
2022-07-28T01:50:46.104Z,2.27
2022-07-28T01:53:23.974Z,1.92
2022-07-28T01:55:51.852Z,1.80
2022-07-28T01:58:20.450Z,1.80
2022-07-28T02:00:49.543Z,1.83
2022-07-28T02:03:22.205Z,1.50
2022-07-28T02:05:50.262Z,1.60
2022-07-28T02:08:22.417Z,1.90
2022-07-28T02:11:09.210Z,1.95
2022-07-28T02:13:44.475Z,2.78
2022-07-28T02:16:11.757Z,1.83
2022-07-28T02:18:39.208Z,1.85
2022-07-28T02:21:07.985Z,2.03
2022-07-28T02:23:34.945Z,1.80
2022-07-28T02:26:07.320Z,1.85
2022-07-28T02:28:34.793Z,1.88
2022-07-28T02:31:04.543Z,1.60
2022-07-28T02:33:59.210Z,1.80
2022-07-28T02:36:26.164Z,2.03
2022-07-28T02:38:54.476Z,1.40
2022-07-28T02:41:24.305Z,1.70
2022-07-28T02:43:52.513Z,1.55
2022-07-28T02:46:22.122Z,1.88
2022-07-28T02:48:52.398Z,1.60
2022-07-28T02:51:21.675Z,1.67
2022-07-28T02:53:48.773Z,1.85
2022-07-28T02:56:16.805Z,1.60
2022-07-28T02:58:43.976Z,1.83
2022-07-28T03:01:21.337Z,1.42
2022-07-28T03:03:55.470Z,1.85
2022-07-28T03:06:26.523Z,1.80
2022-07-28T03:09:08.027Z,1.52
2022-07-28T03:11:34.958Z,1.73
2022-07-28T03:14:01.886Z,1.92
2022-07-28T03:16:32.641Z,1.70
2022-07-28T03:18:59.496Z,1.70
2022-07-28T03:21:33.920Z,1.85
2022-07-28T03:24:00.785Z,2.28
2022-07-28T03:26:32.674Z,2.10
2022-07-28T03:29:05.667Z,1.80
2022-07-28T03:31:33.836Z,1.95
2022-07-28T03:34:00.680Z,1.83
2022-07-28T03:36:30.975Z,2.08
2022-07-28T03:39:00.494Z,1.80
2022-07-28T03:41:28.284Z,1.80
2022-07-28T03:43:55.691Z,2.00
2022-07-28T03:46:28.132Z,1.48
2022-07-28T03:48:55.243Z,2.08
2022-07-28T03:51:22.685Z,2.00
2022-07-28T03:53:49.509Z,2.05
2022-07-28T03:56:16.300Z,2.20
2022-07-28T03:58:43.187Z,2.10
2022-07-28T04:01:09.997Z,1.85
2022-07-28T04:03:44.103Z,2.10
2022-07-28T04:06:18.785Z,2.13
2022-07-28T04:08:45.586Z,2.65
2022-07-28T04:11:13.085Z,2.22
2022-07-28T04:13:44.649Z,2.50
2022-07-28T04:16:14.501Z,2.30
2022-07-28T04:18:45.335Z,2.60
2022-07-28T04:21:12.129Z,2.38
2022-07-28T04:23:39.124Z,2.40
2022-07-28T04:26:05.990Z,2.55
2022-07-28T04:28:32.967Z,2.80
2022-07-28T04:31:02.393Z,2.80
2022-07-28T04:33:30.588Z,2.30
2022-07-28T04:36:05.883Z,2.40
2022-07-28T04:38:37.665Z,2.40
2022-07-28T04:41:12.741Z,2.50
2022-07-28T04:43:45.288Z,2.38
2022-07-28T04:46:15.112Z,2.53
2022-07-28T04:48:42.511Z,2.42
2022-07-28T04:51:09.980Z,3.00
2022-07-28T04:53:36.935Z,2.55
2022-07-28T04:56:11.954Z,2.70
2022-07-28T04:58:39.504Z,3.15
2022-07-28T05:01:13.095Z,2.80
2022-07-28T05:03:40.039Z,2.50
2022-07-28T05:06:06.917Z,2.50
2022-07-28T05:08:35.615Z,3.17
2022-07-28T05:11:06.754Z,2.70
2022-07-28T05:13:34.526Z,3.00
2022-07-28T05:16:02.426Z,2.90
2022-07-28T05:18:29.361Z,2.75
2022-07-28T05:20:56.298Z,2.90
2022-07-28T05:23:23.077Z,3.20
2022-07-28T05:25:49.891Z,2.65
2022-07-28T05:28:22.967Z,1.90
2022-07-28T05:30:49.808Z,2.83
2022-07-28T05:33:17.099Z,2.33
2022-07-28T05:35:50.384Z,2.70
2022-07-28T05:38:25.714Z,2.30
2022-07-28T05:40:52.670Z,2.40
2022-07-28T05:43:24.106Z,2.53
2022-07-28T05:45:53.892Z,2.30
2022-07-28T05:48:21.455Z,2.80
2022-07-28T05:50:49.086Z,2.50
2022-07-28T05:53:15.945Z,2.47
2022-07-28T05:55:57.857Z,2.42
2022-07-28T05:58:33.525Z,2.40
2022-07-28T06:01:01.325Z,2.00
2022-07-28T06:03:30.476Z,2.40
2022-07-28T06:06:14.263Z,2.58
2022-07-28T06:08:43.573Z,2.30
2022-07-28T06:11:21.896Z,2.58
2022-07-28T06:13:52.660Z,1.95
2022-07-28T06:16:24.472Z,2.25
2022-07-28T06:18:55.737Z,2.38
2022-07-28T06:21:28.049Z,2.10
2022-07-28T06:23:56.996Z,2.30
2022-07-28T06:26:24.883Z,2.20
2022-07-28T06:28:53.630Z,2.27
2022-07-28T06:31:30.422Z,1.77
2022-07-28T06:34:04.591Z,1.88
2022-07-28T06:36:35.845Z,1.83
2022-07-28T06:39:02.759Z,2.03
2022-07-28T06:41:44.378Z,1.90
2022-07-28T06:44:12.454Z,2.13
2022-07-28T06:46:39.781Z,2.08
2022-07-28T06:49:06.821Z,1.77
2022-07-28T06:51:38.247Z,1.80
2022-07-28T06:54:11.598Z,1.80
2022-07-28T06:56:49.418Z,1.50
2022-07-28T06:59:17.170Z,2.28
2022-07-28T07:01:44.304Z,1.92
2022-07-28T07:04:12.342Z,1.88
2022-07-28T07:06:39.504Z,2.03
2022-07-28T07:09:06.528Z,2.10
2022-07-28T07:11:33.625Z,1.75
2022-07-28T07:14:02.624Z,1.92
2022-07-28T07:16:29.753Z,1.80
2022-07-28T07:18:56.518Z,1.90
2022-07-28T07:21:23.248Z,2.22
2022-07-28T07:23:52.621Z,1.80
2022-07-28T07:26:19.404Z,2.03
2022-07-28T07:28:54.613Z,2.00
2022-07-28T07:31:25.310Z,2.00
2022-07-28T07:33:57.869Z,2.00
2022-07-28T07:36:27.967Z,2.00
2022-07-28T07:38:54.877Z,2.20
2022-07-28T07:41:21.952Z,1.77
2022-07-28T07:43:49.300Z,1.77
2022-07-28T07:46:18.031Z,2.00
2022-07-28T07:48:44.886Z,1.90
2022-07-28T07:51:15.553Z,2.13
2022-07-28T07:53:47.334Z,1.33
2022-07-28T07:56:15.776Z,1.90
2022-07-28T07:58:44.625Z,1.63
2022-07-28T08:01:14.778Z,1.67
2022-07-28T08:03:42.649Z,1.83
2022-07-28T08:06:09.531Z,2.13
2022-07-28T08:08:43.791Z,1.63
2022-07-28T08:11:14.833Z,2.15
2022-07-28T08:13:41.661Z,1.70
2022-07-28T08:16:08.482Z,2.15
2022-07-28T08:18:35.366Z,1.77
2022-07-28T08:21:02.147Z,1.80
2022-07-28T08:23:28.929Z,1.73
2022-07-28T08:25:57.148Z,1.60
2022-07-28T08:28:23.965Z,1.70
2022-07-28T08:31:00.279Z,1.85
2022-07-28T08:33:27.398Z,1.60
2022-07-28T08:36:02.245Z,1.52
2022-07-28T08:38:29.057Z,1.95
2022-07-28T08:41:03.497Z,1.77
2022-07-28T08:43:35.045Z,1.70
2022-07-28T08:46:06.294Z,1.60
2022-07-28T08:48:34.391Z,1.90
2022-07-28T08:51:10.013Z,1.48
2022-07-28T08:53:37.510Z,1.63
2022-07-28T08:56:08.656Z,1.50
2022-07-28T08:58:36.188Z,1.70
2022-07-28T09:01:03.309Z,2.00
2022-07-28T09:03:30.172Z,2.10
2022-07-28T09:05:57.246Z,2.17
2022-07-28T09:08:24.896Z,1.95
2022-07-28T09:10:51.737Z,1.92
2022-07-28T09:13:19.205Z,2.00
2022-07-28T09:15:54.249Z,1.70
2022-07-28T09:18:21.815Z,1.77
2022-07-28T09:20:50.198Z,1.67
2022-07-28T09:23:42.873Z,1.75
2022-07-28T09:26:12.375Z,1.75
2022-07-28T09:28:47.581Z,1.52
2022-07-28T09:31:19.003Z,1.55
2022-07-28T09:34:13.761Z,2.00
2022-07-28T09:36:45.157Z,1.30
2022-07-28T09:39:12.008Z,1.77
2022-07-28T09:41:57.689Z,1.50
2022-07-28T09:44:25.137Z,1.30
2022-07-28T09:47:00.757Z,1.55
2022-07-28T09:49:42.851Z,1.58
2022-07-28T09:52:09.836Z,1.60
2022-07-28T09:54:40.734Z,1.30
2022-07-28T09:57:10.194Z,1.80
2022-07-28T09:59:50.717Z,1.13
2022-07-28T10:02:28.006Z,1.40
2022-07-28T10:04:59.960Z,1.60
2022-07-28T10:07:30.218Z,1.40
2022-07-28T10:10:07.017Z,1.65
2022-07-28T10:12:35.389Z,1.27
2022-07-28T10:15:34.417Z,1.58
2022-07-28T10:18:01.568Z,1.30
2022-07-28T10:20:33.752Z,1.27
2022-07-28T10:23:04.992Z,1.60
2022-07-28T10:25:33.001Z,1.13
2022-07-28T10:28:01.152Z,1.40
2022-07-28T10:30:29.007Z,1.20
2022-07-28T10:32:57.083Z,1.65
2022-07-28T10:35:25.554Z,1.30
2022-07-28T10:37:59.921Z,1.20
2022-07-28T10:40:29.533Z,1.48
2022-07-28T10:43:00.032Z,1.33
2022-07-28T10:45:48.105Z,1.50
2022-07-28T10:48:15.317Z,1.20
2022-07-28T10:50:44.714Z,1.20
2022-07-28T10:53:11.891Z,1.50
2022-07-28T10:55:58.942Z,1.55
2022-07-28T10:58:43.126Z,1.20
2022-07-28T11:01:49.112Z,1.48
2022-07-28T11:04:35.481Z,1.52
2022-07-28T11:07:12.283Z,1.27
2022-07-28T11:09:39.080Z,1.50
2022-07-28T11:12:06.301Z,1.40
2022-07-28T11:14:39.346Z,1.30
2022-07-28T11:17:10.357Z,1.05
2022-07-28T11:22:33.984Z,1.23
2022-07-28T11:25:18.115Z,1.30
2022-07-28T11:27:50.209Z,1.70
2022-07-28T11:30:45.944Z,1.35
2022-07-28T11:33:16.995Z,1.27
2022-07-28T11:35:44.042Z,1.45
2022-07-28T11:38:12.107Z,1.40
2022-07-28T11:40:40.299Z,1.30
2022-07-28T11:43:28.650Z,1.35
2022-07-28T11:46:15.234Z,1.20
2022-07-28T11:49:07.190Z,1.38
2022-07-28T11:51:52.539Z,1.20
2022-07-28T11:54:19.650Z,1.50
2022-07-28T11:56:58.697Z,1.33
2022-07-28T11:59:25.561Z,1.27
2022-07-28T12:02:03.953Z,1.08
2022-07-28T12:04:31.919Z,1.40
2022-07-28T12:06:59.785Z,1.20
2022-07-28T12:09:42.318Z,1.20
2022-07-28T12:12:10.718Z,1.20
2022-07-28T12:14:38.928Z,1.35
2022-07-28T12:17:14.919Z,1.20
2022-07-28T12:19:42.305Z,1.47
2022-07-28T12:22:12.588Z,1.40
2022-07-28T12:24:45.463Z,1.20
2022-07-28T12:27:13.605Z,1.20
2022-07-28T12:29:56.846Z,1.10
2022-07-28T12:32:38.756Z,1.08
2022-07-28T12:35:15.709Z,1.17
2022-07-28T12:37:48.008Z,1.40
2022-07-28T12:40:27.348Z,1.25
2022-07-28T12:42:54.970Z,1.13
2022-07-28T12:45:26.329Z,1.02
2022-07-28T12:47:53.993Z,1.15
2022-07-28T12:50:39.852Z,1.10
2022-07-28T12:53:15.838Z,1.10
2022-07-28T12:55:43.905Z,1.25
2022-07-28T12:58:26.706Z,1.38
2022-07-28T13:00:55.086Z,1.15
2022-07-28T13:03:27.454Z,1.17
2022-07-28T13:06:05.166Z,1.30
2022-07-28T13:08:45.127Z,1.33
2022-07-28T13:11:43.181Z,1.10
2022-07-28T13:14:03.089Z,1.50
2022-07-28T13:16:37.966Z,1.27
2022-07-28T13:19:22.147Z,1.50
2022-07-28T13:22:01.745Z,1.17
2022-07-28T13:24:32.649Z,1.25
2022-07-28T13:27:02.018Z,1.30
2022-07-28T13:29:33.992Z,1.33
2022-07-28T13:32:01.949Z,1.10
2022-07-28T13:34:29.265Z,1.08
2022-07-28T13:36:57.002Z,1.50
2022-07-28T13:39:24.860Z,1.40
2022-07-28T13:41:58.312Z,1.40
2022-07-28T13:44:31.505Z,1.30
2022-07-28T13:47:00.554Z,1.38
2022-07-28T13:49:33.301Z,1.15
2022-07-28T13:52:02.000Z,1.17
2022-07-28T13:54:29.855Z,1.40
2022-07-28T13:57:12.528Z,1.35
2022-07-28T13:59:41.676Z,1.58
2022-07-28T14:02:15.299Z,1.40
2022-07-28T14:04:45.910Z,1.45
2022-07-28T14:07:20.873Z,1.55
2022-07-28T14:09:50.496Z,1.58
2022-07-28T14:12:18.087Z,1.88
2022-07-28T14:14:48.295Z,1.45
2022-07-28T14:17:43.306Z,1.50
2022-07-28T14:20:14.521Z,1.30
2022-07-28T14:25:20.801Z,1.30
2022-07-28T14:27:50.134Z,1.30
2022-07-28T14:32:45.625Z,1.40
2022-07-28T14:35:12.838Z,1.17
2022-07-28T14:38:15.717Z,1.23
2022-07-28T14:40:27.397Z,1.60
2022-07-28T14:42:54.464Z,1.40
2022-07-28T14:45:21.842Z,1.60
2022-07-28T14:47:48.976Z,1.40
2022-07-28T14:50:16.033Z,1.05
2022-07-28T14:52:45.141Z,1.38
2022-07-28T14:55:12.931Z,1.30
2022-07-28T14:57:50.366Z,1.20
2022-07-28T15:02:47.787Z,1.20
2022-07-28T15:05:15.105Z,1.20
2022-07-28T15:07:42.303Z,1.38
2022-07-28T15:10:10.441Z,1.38
2022-07-28T15:12:38.047Z,1.38
2022-07-28T15:15:05.744Z,1.58
2022-07-28T15:17:33.353Z,1.30
2022-07-28T15:20:00.498Z,1.58
2022-07-28T15:22:27.544Z,1.40
2022-07-28T15:24:54.527Z,1.15
2022-07-28T15:27:21.531Z,1.40
2022-07-28T15:29:52.399Z,1.23
2022-07-28T15:32:22.122Z,1.52
2022-07-28T15:34:55.876Z,1.42
2022-07-28T15:37:23.865Z,1.95
2022-07-28T15:39:51.014Z,1.40
2022-07-28T15:42:18.076Z,1.30
2022-07-28T15:44:45.263Z,1.30
2022-07-28T15:47:13.574Z,1.20
2022-07-28T15:49:41.503Z,1.30
2022-07-28T15:52:10.121Z,1.42
2022-07-28T15:54:37.152Z,1.30
2022-07-28T15:57:04.379Z,1.25
2022-07-28T15:59:49.151Z,1.45
2022-07-28T16:02:18.406Z,1.23
2022-07-28T16:04:52.204Z,1.60
2022-07-28T16:07:23.290Z,1.42
2022-07-28T16:09:51.943Z,1.30
2022-07-28T16:12:19.127Z,1.30
2022-07-28T16:14:46.199Z,1.48
2022-07-28T16:17:13.693Z,1.30
2022-07-28T16:19:50.188Z,1.55
2022-07-28T16:22:20.931Z,1.42
2022-07-28T16:24:50.642Z,1.60
2022-07-28T16:27:17.704Z,2.10
2022-07-28T16:29:44.942Z,1.63
2022-07-28T16:32:12.714Z,1.52
2022-07-28T16:34:39.905Z,1.67
2022-07-28T16:37:10.545Z,1.60
2022-07-28T16:39:38.221Z,2.08
2022-07-28T16:42:05.502Z,1.58
2022-07-28T16:44:33.623Z,1.60
2022-07-28T16:47:02.072Z,1.80
2022-07-28T16:49:30.235Z,2.03
2022-07-28T16:51:58.205Z,2.58
2022-07-28T16:54:25.264Z,1.73
2022-07-28T16:56:54.465Z,2.00
2022-07-28T17:01:49.274Z,1.88
2022-07-28T17:04:16.894Z,1.65
2022-07-28T17:06:45.885Z,1.70
2022-07-28T17:09:15.840Z,2.03
2022-07-28T17:11:43.785Z,1.58
2022-07-28T17:14:11.801Z,1.58
2022-07-28T17:16:39.826Z,1.83
2022-07-28T17:19:07.044Z,1.80
2022-07-28T17:21:35.743Z,1.80
2022-07-28T17:24:03.980Z,2.30
2022-07-28T17:29:19.040Z,2.05
2022-07-28T17:31:46.348Z,2.10
2022-07-28T17:34:14.155Z,1.83
2022-07-28T17:36:42.219Z,1.52
2022-07-28T17:39:09.657Z,2.30
2022-07-28T17:41:37.039Z,1.92
2022-07-28T17:44:05.561Z,2.00
2022-07-28T17:46:34.805Z,1.60
2022-07-28T17:49:02.938Z,1.52
2022-07-28T17:51:30.700Z,1.92
2022-07-28T17:54:01.794Z,1.92
2022-07-28T17:56:31.238Z,2.67
2022-07-28T17:59:01.398Z,2.00
2022-07-28T18:01:30.558Z,1.45
2022-07-28T18:04:12.146Z,1.45
2022-07-28T18:06:40.681Z,1.73
2022-07-28T18:09:11.505Z,1.73
2022-07-28T18:11:57.653Z,2.25
2022-07-28T18:14:31.324Z,1.98
2022-07-28T18:16:58.758Z,1.50
2022-07-28T18:19:27.154Z,1.65
2022-07-28T18:21:54.697Z,1.70
2022-07-28T18:24:22.771Z,1.88
2022-07-28T18:26:51.312Z,2.05
2022-07-28T18:29:37.971Z,1.83
2022-07-28T18:32:07.787Z,1.40
2022-07-28T18:34:36.888Z,1.63
2022-07-28T18:37:04.176Z,1.70
2022-07-28T18:39:33.040Z,2.00
2022-07-28T18:42:00.066Z,1.55
2022-07-28T18:44:27.198Z,1.70
2022-07-28T18:47:02.481Z,1.40
2022-07-28T18:49:29.590Z,1.38
2022-07-28T18:52:05.799Z,1.60
2022-07-28T18:54:32.962Z,1.70
2022-07-28T18:57:07.989Z,1.38
2022-07-28T18:59:44.613Z,1.85
2022-07-28T19:02:14.867Z,1.80
2022-07-28T19:04:42.270Z,1.60
2022-07-28T19:07:09.319Z,1.58
2022-07-28T19:09:39.801Z,1.92
2022-07-28T19:12:07.303Z,1.70
2022-07-28T19:14:34.612Z,1.80
2022-07-28T19:17:05.515Z,1.70
2022-07-28T19:19:33.469Z,1.75
2022-07-28T19:22:00.513Z,2.08
2022-07-28T19:24:27.627Z,1.52
2022-07-28T19:27:05.083Z,2.03
2022-07-28T19:29:32.979Z,1.67
2022-07-28T19:32:01.907Z,1.80
2022-07-28T19:34:29.539Z,1.75
2022-07-28T19:36:56.717Z,1.67
2022-07-28T19:39:25.145Z,1.70
2022-07-28T19:41:52.283Z,1.63
2022-07-28T19:44:21.263Z,1.80
2022-07-28T19:46:49.238Z,1.95
2022-07-28T19:49:17.275Z,1.80
2022-07-28T19:51:44.800Z,1.73
2022-07-28T19:54:13.241Z,1.67
2022-07-28T19:56:42.791Z,1.70
2022-07-28T19:59:09.882Z,1.55
2022-07-28T20:01:36.954Z,1.63
2022-07-28T20:04:13.185Z,1.75
2022-07-28T20:06:40.254Z,1.85
2022-07-28T20:09:11.409Z,1.73
2022-07-28T20:11:38.997Z,1.65
2022-07-28T20:14:12.269Z,1.88
2022-07-28T20:16:39.644Z,1.83
2022-07-28T20:19:06.696Z,1.98
2022-07-28T20:21:41.050Z,2.53
2022-07-28T20:24:08.369Z,2.13
2022-07-28T20:26:35.527Z,1.45
2022-07-28T20:29:05.828Z,1.52
2022-07-28T20:31:33.121Z,1.52
2022-07-28T20:34:00.452Z,1.73
2022-07-28T20:36:30.010Z,1.80
2022-07-28T20:39:00.039Z,1.60
2022-07-28T20:41:28.202Z,1.80
2022-07-28T20:44:26.231Z,1.80
2022-07-28T20:46:42.336Z,1.80
2022-07-28T20:49:09.738Z,1.38
2022-07-28T20:51:36.987Z,1.52
2022-07-28T20:54:04.102Z,1.77
2022-07-28T20:56:31.311Z,1.40
2022-07-28T20:59:00.589Z,1.60
2022-07-28T21:01:33.344Z,1.58
2022-07-28T21:04:00.608Z,1.73
2022-07-28T21:06:27.917Z,1.45
2022-07-28T21:08:59.686Z,1.50
2022-07-28T21:11:27.063Z,1.58
2022-07-28T21:13:55.321Z,1.60
2022-07-28T21:16:22.958Z,1.60
2022-07-28T21:18:51.263Z,1.70
2022-07-28T21:21:18.248Z,1.65
2022-07-28T21:23:45.318Z,1.60
2022-07-28T21:26:12.681Z,2.00
2022-07-28T21:28:59.949Z,2.25
2022-07-28T21:31:36.838Z,1.50
2022-07-28T21:34:23.755Z,1.77
2022-07-28T21:36:58.309Z,1.60
2022-07-28T21:39:25.437Z,1.80
2022-07-28T21:41:52.711Z,1.70
2022-07-28T21:44:19.977Z,1.80
2022-07-28T21:46:46.983Z,2.22
2022-07-28T21:49:14.412Z,1.73
2022-07-28T21:51:42.101Z,1.92
2022-07-28T21:54:09.390Z,1.95
2022-07-28T21:56:43.982Z,2.00
2022-07-28T21:59:11.222Z,2.25
2022-07-28T22:01:38.559Z,1.77
2022-07-28T22:04:05.933Z,2.08
2022-07-28T22:06:33.074Z,1.73
2022-07-28T22:09:00.287Z,2.17
2022-07-28T22:11:27.522Z,1.85
2022-07-28T22:13:54.850Z,2.00
2022-07-28T22:16:22.154Z,1.73
2022-07-28T22:18:49.510Z,1.67
2022-07-28T22:21:16.646Z,1.65
2022-07-28T22:23:43.755Z,1.92
2022-07-28T22:26:10.747Z,1.75
2022-07-28T22:28:38.030Z,1.80
2022-07-28T22:31:09.311Z,1.75
2022-07-28T22:33:38.067Z,2.28
2022-07-28T22:36:08.529Z,2.08
2022-07-28T22:38:40.192Z,1.95
2022-07-28T22:41:09.771Z,2.13
2022-07-28T22:43:37.436Z,2.17
2022-07-28T22:46:10.156Z,1.90
2022-07-28T22:48:37.477Z,2.78
2022-07-28T22:51:10.444Z,1.95
2022-07-28T22:53:37.813Z,2.03
2022-07-28T22:56:05.446Z,1.67
2022-07-28T22:58:32.654Z,1.83
2022-07-28T23:00:59.692Z,2.10
2022-07-28T23:03:29.586Z,1.98
2022-07-28T23:05:59.344Z,2.17
2022-07-28T23:08:27.210Z,1.77
2022-07-28T23:10:54.764Z,1.70
2022-07-28T23:13:21.885Z,1.90
2022-07-28T23:15:49.136Z,1.83
2022-07-28T23:18:16.407Z,1.70
2022-07-28T23:20:44.780Z,1.70
2022-07-28T23:23:12.322Z,1.63
2022-07-28T23:25:42.519Z,2.13
2022-07-28T23:28:10.838Z,2.30
2022-07-28T23:30:38.095Z,2.20
2022-07-28T23:33:05.441Z,2.45
2022-07-28T23:35:35.657Z,2.00
2022-07-28T23:38:03.198Z,1.65
2022-07-28T23:40:30.182Z,1.98
2022-07-28T23:42:57.387Z,1.63
2022-07-28T23:45:24.653Z,2.08
2022-07-28T23:47:58.110Z,2.00
2022-07-28T23:50:26.276Z,1.80
2022-07-28T23:52:53.524Z,2.10
2022-07-28T23:55:20.757Z,1.95
2022-07-28T23:57:52.114Z,2.08
